createdAt,value
2018-05-04T00:01:37.757Z,15.33
2018-05-04T00:04:05.900Z,14.60
2018-05-04T00:06:34.171Z,14.17
2018-05-04T00:09:02.422Z,14.90
2018-05-04T00:11:30.043Z,15.90
2018-05-04T00:13:57.527Z,13.23
2018-05-04T00:16:25.011Z,14.30
2018-05-04T00:18:53.288Z,15.00
2018-05-04T00:21:21.547Z,15.30
2018-05-04T00:23:49.139Z,14.57
2018-05-04T00:26:16.653Z,14.90
2018-05-04T00:28:44.176Z,13.80
2018-05-04T00:31:11.662Z,14.37
2018-05-04T00:33:39.159Z,13.70
2018-05-04T00:36:07.426Z,12.70
2018-05-04T00:38:35.711Z,12.67
2018-05-04T00:41:03.992Z,11.47
2018-05-04T00:43:31.483Z,12.60
2018-05-04T00:45:58.991Z,12.30
2018-05-04T00:48:27.268Z,10.93
2018-05-04T00:50:55.560Z,12.63
2018-05-04T00:53:23.045Z,11.53
2018-05-04T00:55:50.548Z,10.90
2018-05-04T00:58:18.833Z,10.80
2018-05-04T01:00:47.099Z,11.83
2018-05-04T01:03:15.376Z,11.23
2018-05-04T01:05:43.628Z,10.93
2018-05-04T01:08:11.213Z,11.40
2018-05-04T01:10:39.499Z,11.07
2018-05-04T01:13:07.056Z,11.77
2018-05-04T01:15:34.580Z,11.63
2018-05-04T01:18:02.166Z,11.70
2018-05-04T01:20:29.653Z,11.27
2018-05-04T01:22:57.197Z,10.80
2018-05-04T01:25:24.686Z,11.50
2018-05-04T01:27:52.178Z,15.00
2018-05-04T01:30:20.488Z,12.53
2018-05-04T01:32:47.976Z,12.40
2018-05-04T01:35:16.513Z,10.63
2018-05-04T01:37:44.014Z,11.13
2018-05-04T01:40:11.513Z,11.87
2018-05-04T01:42:39.799Z,10.90
2018-05-04T01:45:07.312Z,10.87
2018-05-04T01:47:34.815Z,10.83
2018-05-04T01:50:02.363Z,12.00
2018-05-04T01:52:29.923Z,10.30
2018-05-04T01:54:57.482Z,12.23
2018-05-04T01:57:25.031Z,10.90
2018-05-04T01:59:53.305Z,11.10
2018-05-04T02:02:21.564Z,12.20
2018-05-04T02:04:49.071Z,10.97
2018-05-04T02:07:16.566Z,12.00
2018-05-04T02:09:44.163Z,10.57
2018-05-04T02:12:11.714Z,11.23
2018-05-04T02:14:39.991Z,10.67
2018-05-04T02:17:07.556Z,10.30
2018-05-04T02:19:35.051Z,11.40
2018-05-04T02:22:02.545Z,12.70
2018-05-04T02:24:30.794Z,12.23
2018-05-04T02:26:58.396Z,11.63
2018-05-04T02:29:25.941Z,11.27
2018-05-04T02:31:54.333Z,11.27
2018-05-04T02:34:21.826Z,11.27
2018-05-04T02:36:49.330Z,11.67
2018-05-04T02:39:17.597Z,11.50
2018-05-04T02:41:45.883Z,11.70
2018-05-04T02:44:14.201Z,12.80
2018-05-04T02:46:41.708Z,12.10
2018-05-04T02:49:10.008Z,11.30
2018-05-04T02:51:37.512Z,11.60
2018-05-04T02:54:05.115Z,11.73
2018-05-04T02:56:32.619Z,13.53
2018-05-04T02:59:00.123Z,12.83
2018-05-04T03:01:28.404Z,11.80
2018-05-04T03:03:55.958Z,12.63
2018-05-04T03:06:24.226Z,12.60
2018-05-04T03:08:52.496Z,12.37
2018-05-04T03:11:20.762Z,12.07
2018-05-04T03:13:48.249Z,11.87
2018-05-04T03:16:15.759Z,12.00
2018-05-04T03:18:44.189Z,11.53
2018-05-04T03:21:11.726Z,11.17
2018-05-04T03:23:39.244Z,12.37
2018-05-04T03:26:06.741Z,12.07
2018-05-04T03:28:35.026Z,12.17
2018-05-04T03:31:02.550Z,12.47
2018-05-04T03:33:30.140Z,12.30
2018-05-04T03:35:57.653Z,13.03
2018-05-04T03:38:25.167Z,12.17
2018-05-04T03:40:52.660Z,12.93
2018-05-04T03:43:20.195Z,12.93
2018-05-04T03:45:47.712Z,12.83
2018-05-04T03:48:15.978Z,12.90
2018-05-04T03:50:44.272Z,15.10
2018-05-04T03:53:11.827Z,13.43
2018-05-04T03:55:39.356Z,13.73
2018-05-04T03:58:18.797Z,14.20
2018-05-04T04:00:58.268Z,13.70
2018-05-04T04:03:37.618Z,14.07
2018-05-04T04:06:05.124Z,14.23
2018-05-04T04:08:32.698Z,14.20
2018-05-04T04:11:00.999Z,14.27
2018-05-04T04:13:28.502Z,15.40
2018-05-04T04:15:56.096Z,15.30
2018-05-04T04:18:23.605Z,18.17
2018-05-04T04:20:51.098Z,16.27
2018-05-04T04:23:19.388Z,17.17
2018-05-04T04:25:46.915Z,16.97
2018-05-04T04:28:15.194Z,17.30
2018-05-04T04:30:43.458Z,16.30
2018-05-04T04:33:11.032Z,18.30
2018-05-04T04:35:39.304Z,16.97
2018-05-04T04:38:07.582Z,18.30
2018-05-04T04:40:35.877Z,17.60
2018-05-04T04:43:03.433Z,17.30
2018-05-04T04:45:31.004Z,17.07
2018-05-04T04:47:58.501Z,16.77
2018-05-04T04:50:26.001Z,17.23
2018-05-04T04:52:53.549Z,16.97
2018-05-04T04:55:22.318Z,17.43
2018-05-04T04:57:49.889Z,18.17
2018-05-04T05:00:18.160Z,16.53
2018-05-04T05:02:46.419Z,19.03
2018-05-04T05:05:13.929Z,18.73
2018-05-04T05:07:41.469Z,17.00
2018-05-04T05:10:09.023Z,19.60
2018-05-04T05:12:36.506Z,17.87
2018-05-04T05:15:03.998Z,17.23
2018-05-04T05:17:31.594Z,18.37
2018-05-04T05:19:59.094Z,18.00
2018-05-04T05:22:26.620Z,18.27
2018-05-04T05:24:54.163Z,16.57
2018-05-04T05:27:21.723Z,17.07
2018-05-04T05:29:49.280Z,17.43
2018-05-04T05:32:16.785Z,18.83
2018-05-04T05:34:44.300Z,18.23
2018-05-04T05:37:11.869Z,18.33
2018-05-04T05:39:40.233Z,18.90
2018-05-04T05:42:07.739Z,19.57
2018-05-04T05:44:35.250Z,19.07
2018-05-04T05:47:02.734Z,18.17
2018-05-04T05:49:30.247Z,19.40
2018-05-04T05:51:58.596Z,18.43
2018-05-04T05:54:26.807Z,18.10
2018-05-04T05:56:54.302Z,17.90
2018-05-04T05:59:21.815Z,16.90
2018-05-04T06:01:49.346Z,18.27
2018-05-04T06:04:16.848Z,19.93
2018-05-04T06:06:44.338Z,16.80
2018-05-04T06:09:11.863Z,17.27
2018-05-04T06:11:39.360Z,17.87
2018-05-04T06:14:06.855Z,18.80
2018-05-04T06:16:35.136Z,17.33
2018-05-04T06:19:02.639Z,18.47
2018-05-04T06:21:30.267Z,18.87
2018-05-04T06:23:57.803Z,18.07
2018-05-04T06:26:25.306Z,18.73
2018-05-04T06:28:52.803Z,18.83
2018-05-04T06:31:21.092Z,17.57
2018-05-04T06:33:48.636Z,17.70
2018-05-04T06:36:16.139Z,17.60
2018-05-04T06:38:43.643Z,17.90
2018-05-04T06:41:11.907Z,17.60
2018-05-04T06:43:39.410Z,17.40
2018-05-04T06:46:06.956Z,17.10
2018-05-04T06:48:35.264Z,18.30
2018-05-04T06:51:02.794Z,19.23
2018-05-04T06:53:30.304Z,16.60
2018-05-04T06:55:57.814Z,17.60
2018-05-04T06:58:25.384Z,18.90
2018-05-04T07:00:52.912Z,17.70
2018-05-04T07:03:20.432Z,19.73
2018-05-04T07:05:47.955Z,18.60
2018-05-04T07:08:15.450Z,18.27
2018-05-04T07:10:42.968Z,18.03
2018-05-04T07:13:10.466Z,17.70
2018-05-04T07:15:37.984Z,17.73
2018-05-04T07:18:05.508Z,18.03
2018-05-04T07:20:33.083Z,18.83
2018-05-04T07:23:00.611Z,18.40
2018-05-04T07:25:28.891Z,18.93
2018-05-04T07:27:57.146Z,17.33
2018-05-04T07:30:24.736Z,18.20
2018-05-04T07:32:52.238Z,18.33
2018-05-04T07:35:19.847Z,18.57
2018-05-04T07:37:49.033Z,18.17
2018-05-04T07:40:17.288Z,17.93
2018-05-04T07:42:44.812Z,17.30
2018-05-04T07:45:12.302Z,17.20
2018-05-04T07:47:39.815Z,17.97
2018-05-04T07:50:07.338Z,18.67
2018-05-04T07:52:35.589Z,18.10
2018-05-04T07:55:03.114Z,18.13
2018-05-04T07:57:30.602Z,20.20
2018-05-04T07:59:58.097Z,17.77
2018-05-04T08:02:25.595Z,15.10
2018-05-04T08:04:53.208Z,12.97
2018-05-04T08:07:20.716Z,15.73
2018-05-04T08:09:48.213Z,13.90
2018-05-04T08:12:16.471Z,13.63
2018-05-04T08:14:44.749Z,14.20
2018-05-04T08:17:13.029Z,13.53
2018-05-04T08:19:41.315Z,12.93
2018-05-04T08:22:08.874Z,15.87
2018-05-04T08:24:36.380Z,14.67
2018-05-04T08:27:04.008Z,16.00
2018-05-04T08:29:31.519Z,12.90
2018-05-04T08:31:59.019Z,14.43
2018-05-04T08:34:26.522Z,14.13
2018-05-04T08:36:54.035Z,14.57
2018-05-04T08:39:21.533Z,14.40
2018-05-04T08:41:49.156Z,13.73
2018-05-04T08:44:16.792Z,16.43
2018-05-04T08:46:44.294Z,17.90
2018-05-04T08:49:11.812Z,18.07
2018-05-04T08:51:39.309Z,16.93
2018-05-04T08:54:06.914Z,14.63
2018-05-04T08:56:35.195Z,15.23
2018-05-04T08:59:02.700Z,15.93
2018-05-04T09:01:30.199Z,19.13
2018-05-04T09:03:58.471Z,19.37
2018-05-04T09:06:26.755Z,20.83
2018-05-04T09:08:54.256Z,20.80
2018-05-04T09:11:21.764Z,21.40
2018-05-04T09:13:50.043Z,21.27
2018-05-04T09:16:17.663Z,22.37
2018-05-04T09:18:45.105Z,24.30
2018-05-04T09:21:12.703Z,23.13
2018-05-04T09:23:40.953Z,22.23
2018-05-04T09:26:08.543Z,25.53
2018-05-04T09:28:36.826Z,26.97
2018-05-04T09:31:04.360Z,24.73
2018-05-04T09:33:31.820Z,25.40
2018-05-04T09:36:00.097Z,23.20
2018-05-04T09:38:28.394Z,25.30
2018-05-04T09:40:55.895Z,24.00
2018-05-04T09:43:23.421Z,28.10
2018-05-04T09:45:50.921Z,27.40
2018-05-04T09:48:18.619Z,25.30
2018-05-04T09:50:46.137Z,25.60
2018-05-04T09:53:13.636Z,27.63
2018-05-04T09:55:41.138Z,28.87
2018-05-04T09:58:08.741Z,27.80
2018-05-04T10:00:37.011Z,27.37
2018-05-04T10:03:05.287Z,27.83
2018-05-04T10:05:33.572Z,28.50
2018-05-04T10:08:01.095Z,27.70
2018-05-04T10:10:28.595Z,27.77
2018-05-04T10:12:56.104Z,28.60
2018-05-04T10:15:23.730Z,28.20
2018-05-04T10:17:51.276Z,29.60
2018-05-04T10:20:18.778Z,28.27
2018-05-04T10:22:46.278Z,27.60
2018-05-04T10:25:13.758Z,28.40
2018-05-04T10:27:41.265Z,26.13
2018-05-04T10:30:09.544Z,27.93
2018-05-04T10:32:37.826Z,29.03
2018-05-04T10:35:06.100Z,28.60
2018-05-04T10:37:34.349Z,27.30
2018-05-04T10:40:01.929Z,26.20
2018-05-04T10:42:30.181Z,26.80
2018-05-04T10:44:57.689Z,25.90
2018-05-04T10:47:25.176Z,28.27
2018-05-04T10:49:52.661Z,27.07
2018-05-04T10:52:20.937Z,26.57
2018-05-04T10:54:49.189Z,26.67
2018-05-04T10:57:16.713Z,27.83
2018-05-04T10:59:44.190Z,25.53
2018-05-04T11:02:11.699Z,26.30
2018-05-04T11:04:39.960Z,26.60
2018-05-04T11:07:08.226Z,27.87
2018-05-04T11:09:35.738Z,27.13
2018-05-04T11:12:03.337Z,26.10
2018-05-04T11:14:30.790Z,25.00
2018-05-04T11:16:58.271Z,25.17
2018-05-04T11:19:26.581Z,27.23
2018-05-04T11:21:54.093Z,26.20
2018-05-04T11:24:22.355Z,25.93
2018-05-04T11:26:50.715Z,23.93
2018-05-04T11:29:18.214Z,25.27
2018-05-04T11:31:46.474Z,23.93
2018-05-04T11:34:14.764Z,24.60
2018-05-04T11:36:42.318Z,23.70
2018-05-04T11:39:10.577Z,22.30
2018-05-04T11:41:38.858Z,22.00
2018-05-04T11:44:07.113Z,22.47
2018-05-04T11:46:34.649Z,24.37
2018-05-04T11:49:02.151Z,21.67
2018-05-04T11:51:30.529Z,22.87
2018-05-04T11:53:58.958Z,22.13
2018-05-04T11:56:26.525Z,22.03
2018-05-04T11:58:54.163Z,22.27
2018-05-04T12:01:21.691Z,24.77
2018-05-04T12:03:49.183Z,22.67
2018-05-04T12:06:16.695Z,22.97
2018-05-04T12:08:44.983Z,23.23
2018-05-04T12:11:12.541Z,26.50
2018-05-04T12:13:40.075Z,24.70
2018-05-04T12:16:08.346Z,26.20
2018-05-04T12:18:36.604Z,23.60
2018-05-04T12:21:04.195Z,25.87
2018-05-04T12:23:31.704Z,25.63
2018-05-04T12:25:59.194Z,25.07
2018-05-04T12:28:27.486Z,24.00
2018-05-04T12:30:54.974Z,22.50
2018-05-04T12:33:22.478Z,23.87
2018-05-04T12:35:50.064Z,25.23
2018-05-04T12:38:17.623Z,24.63
2018-05-04T12:40:45.170Z,26.40
2018-05-04T12:43:13.442Z,24.73
2018-05-04T12:45:41.826Z,26.20
2018-05-04T12:48:09.323Z,27.27
2018-05-04T12:50:36.938Z,27.93
2018-05-04T12:53:05.291Z,26.47
2018-05-04T12:55:32.728Z,28.30
2018-05-04T12:58:00.229Z,28.90
2018-05-04T13:00:27.740Z,28.40
2018-05-04T13:02:55.237Z,28.07
2018-05-04T13:05:23.504Z,26.73
2018-05-04T13:07:51.774Z,26.70
2018-05-04T13:10:20.068Z,27.60
2018-05-04T13:12:47.583Z,27.00
2018-05-04T13:15:15.084Z,27.57
2018-05-04T13:17:42.607Z,25.97
2018-05-04T13:20:10.207Z,25.90
2018-05-04T13:22:37.723Z,26.47
2018-05-04T13:25:05.240Z,25.70
2018-05-04T13:27:32.747Z,25.30
2018-05-04T13:30:02.024Z,24.87
2018-05-04T13:32:29.528Z,24.10
2018-05-04T13:34:57.040Z,25.73
2018-05-04T13:37:24.539Z,23.10
2018-05-04T13:39:52.092Z,24.90
2018-05-04T13:42:19.660Z,24.80
2018-05-04T13:44:47.220Z,24.27
2018-05-04T13:47:14.709Z,29.60
2018-05-04T13:49:42.205Z,24.53
2018-05-04T13:52:10.494Z,24.63
2018-05-04T13:54:38.074Z,22.73
2018-05-04T13:57:05.576Z,24.33
2018-05-04T13:59:33.073Z,23.93
2018-05-04T14:02:00.586Z,27.70
2018-05-04T14:04:28.105Z,26.23
2018-05-04T14:06:55.623Z,26.40
2018-05-04T14:09:23.884Z,26.00
2018-05-04T14:11:51.386Z,25.50
2018-05-04T14:14:18.919Z,26.00
2018-05-04T14:16:47.218Z,25.53
2018-05-04T14:19:14.711Z,25.37
2018-05-04T14:21:42.217Z,25.33
2018-05-04T14:24:09.730Z,24.30
2018-05-04T14:26:37.263Z,24.50
2018-05-04T14:29:04.770Z,25.57
2018-05-04T14:31:33.032Z,25.90
2018-05-04T14:34:00.532Z,25.37
2018-05-04T14:36:28.051Z,24.57
2018-05-04T14:38:56.338Z,27.00
2018-05-04T14:41:24.604Z,25.23
2018-05-04T14:43:52.862Z,25.00
2018-05-04T14:46:20.377Z,25.70
2018-05-04T14:48:47.912Z,25.93
2018-05-04T14:51:15.464Z,24.73
2018-05-04T14:53:42.998Z,38.20
2018-05-04T14:56:10.485Z,26.47
2018-05-04T14:58:38.122Z,27.27
2018-05-04T15:01:05.584Z,26.53
2018-05-04T15:03:33.874Z,25.70
2018-05-04T15:06:01.380Z,27.30
2018-05-04T15:08:28.900Z,26.70
2018-05-04T15:10:56.386Z,26.60
2018-05-04T15:13:23.898Z,25.73
2018-05-04T15:15:51.394Z,26.63
2018-05-04T15:18:18.913Z,25.83
2018-05-04T15:20:46.423Z,26.70
2018-05-04T15:23:13.914Z,26.03
2018-05-04T15:25:42.214Z,25.60
2018-05-04T15:28:09.714Z,27.10
2018-05-04T15:30:37.307Z,26.20
2018-05-04T15:33:04.874Z,25.90
2018-05-04T15:35:32.418Z,25.73
2018-05-04T15:38:00.703Z,26.30
2018-05-04T15:40:28.294Z,26.43
2018-05-04T15:42:56.554Z,24.27
2018-05-04T15:45:24.044Z,23.90
2018-05-04T15:47:51.561Z,25.00
2018-05-04T15:50:24.822Z,24.53
2018-05-04T15:52:53.133Z,24.30
2018-05-04T15:55:20.632Z,23.30
2018-05-04T15:57:48.219Z,23.90
2018-05-04T16:00:16.614Z,24.63
2018-05-04T16:02:44.125Z,23.50
2018-05-04T16:05:11.690Z,23.53
2018-05-04T16:07:39.971Z,21.13
2018-05-04T16:10:07.553Z,22.60
2018-05-04T16:12:35.146Z,21.57
2018-05-04T16:15:02.647Z,22.00
2018-05-04T16:17:30.926Z,21.60
2018-05-04T16:19:59.216Z,21.27
2018-05-04T16:22:26.895Z,20.30
2018-05-04T16:24:54.418Z,19.97
2018-05-04T16:27:22.695Z,20.03
2018-05-04T16:29:51.029Z,20.53
2018-05-04T16:32:18.557Z,20.07
2018-05-04T16:34:46.054Z,20.63
2018-05-04T16:37:13.572Z,20.17
2018-05-04T16:39:41.104Z,18.43
2018-05-04T16:42:09.361Z,18.63
2018-05-04T16:44:36.860Z,19.23
2018-05-04T16:47:10.129Z,18.60
2018-05-04T16:49:38.418Z,18.50
2018-05-04T16:52:05.937Z,18.73
2018-05-04T16:54:33.438Z,19.30
2018-05-04T16:57:00.940Z,19.80
2018-05-04T16:59:28.451Z,20.73
2018-05-04T17:01:55.957Z,21.93
2018-05-04T17:04:23.475Z,19.53
2018-05-04T17:06:50.958Z,20.63
2018-05-04T17:09:18.453Z,21.40
2018-05-04T17:11:46.752Z,21.93
2018-05-04T17:14:14.259Z,20.53
2018-05-04T17:16:41.752Z,22.33
2018-05-04T17:19:09.250Z,21.33
2018-05-04T17:21:36.740Z,19.53
2018-05-04T17:24:05.044Z,22.30
2018-05-04T17:26:32.553Z,20.40
2018-05-04T17:29:00.626Z,20.50
2018-05-04T17:31:28.138Z,18.87
2018-05-04T17:33:55.678Z,19.97
2018-05-04T17:36:23.166Z,21.23
2018-05-04T17:38:50.686Z,20.87
2018-05-04T17:41:18.218Z,21.63
2018-05-04T17:43:46.513Z,21.20
2018-05-04T17:46:14.810Z,21.33
2018-05-04T17:48:42.301Z,21.07
2018-05-04T17:51:09.810Z,22.90
2018-05-04T17:53:37.297Z,21.70
2018-05-04T17:56:04.809Z,23.27
2018-05-04T17:58:33.070Z,21.27
2018-05-04T18:01:00.669Z,22.17
2018-05-04T18:03:28.213Z,21.53
2018-05-04T18:05:55.752Z,21.37
2018-05-04T18:08:24.064Z,21.63
2018-05-04T18:10:51.559Z,21.40
2018-05-04T18:13:19.076Z,21.33
2018-05-04T18:15:46.566Z,22.53
2018-05-04T18:18:14.075Z,22.90
2018-05-04T18:20:41.611Z,22.67
2018-05-04T18:23:09.546Z,23.60
2018-05-04T18:25:37.056Z,25.73
2018-05-04T18:28:04.566Z,23.50
2018-05-04T18:30:32.070Z,24.37
2018-05-04T18:32:59.657Z,23.80
2018-05-04T18:35:27.228Z,25.50
2018-05-04T18:37:54.853Z,26.17
2018-05-04T18:40:22.359Z,24.67
2018-05-04T18:42:49.978Z,25.00
2018-05-04T18:45:17.616Z,24.30
2018-05-04T18:47:45.873Z,24.17
2018-05-04T18:50:14.128Z,24.60
2018-05-04T18:52:41.641Z,26.90
2018-05-04T18:55:09.144Z,24.43
2018-05-04T18:57:36.648Z,26.57
2018-05-04T19:00:04.167Z,26.73
2018-05-04T19:02:37.246Z,24.57
2018-05-04T19:05:04.742Z,22.73
2018-05-04T19:07:32.258Z,27.33
2018-05-04T19:09:59.754Z,24.63
2018-05-04T19:12:27.301Z,26.17
2018-05-04T19:14:55.563Z,25.57
2018-05-04T19:17:23.857Z,26.73
2018-05-04T19:19:51.352Z,26.83
2018-05-04T19:22:18.879Z,25.83
2018-05-04T19:24:46.395Z,24.60
2018-05-04T19:27:13.983Z,26.93
2018-05-04T19:29:41.500Z,27.37
2018-05-04T19:32:09.001Z,25.40
2018-05-04T19:34:36.523Z,27.33
2018-05-04T19:37:04.012Z,27.27
2018-05-04T19:39:31.727Z,25.57
2018-05-04T19:41:59.365Z,25.73
2018-05-04T19:44:26.926Z,26.93
2018-05-04T19:46:55.225Z,27.33
2018-05-04T19:49:22.769Z,28.00
2018-05-04T19:51:50.272Z,25.97
2018-05-04T19:54:18.539Z,28.00
2018-05-04T19:56:46.845Z,26.57
2018-05-04T19:59:14.361Z,26.50
2018-05-04T20:01:41.899Z,26.73
2018-05-04T20:04:09.409Z,26.40
2018-05-04T20:06:36.914Z,28.40
2018-05-04T20:09:05.613Z,27.80
2018-05-04T20:11:33.123Z,27.40
2018-05-04T20:14:00.642Z,28.97
2018-05-04T20:16:28.905Z,28.67
2018-05-04T20:18:56.526Z,27.50
2018-05-04T20:21:24.014Z,28.80
2018-05-04T20:23:51.534Z,28.33
2018-05-04T20:26:19.055Z,28.33
2018-05-04T20:28:46.608Z,29.10
2018-05-04T20:31:14.932Z,27.90
2018-05-04T20:33:42.557Z,28.80
2018-05-04T20:36:10.042Z,29.80
2018-05-04T20:38:37.550Z,28.30
2018-05-04T20:41:05.137Z,30.43
2018-05-04T20:43:32.679Z,31.20
2018-05-04T20:46:00.179Z,29.57
2018-05-04T20:48:27.777Z,28.23
2018-05-04T20:50:56.058Z,29.07
2018-05-04T20:53:24.323Z,31.27
2018-05-04T20:55:52.592Z,30.00
2018-05-04T20:58:20.083Z,30.43
2018-05-04T21:00:47.582Z,28.80
2018-05-04T21:03:15.082Z,30.80
2018-05-04T21:05:43.454Z,31.30
2018-05-04T21:08:11.786Z,29.57
2018-05-04T21:10:39.400Z,29.00
2018-05-04T21:13:06.912Z,29.87
2018-05-04T21:15:34.412Z,27.80
2018-05-04T21:18:01.945Z,33.93
2018-05-04T21:20:29.449Z,30.00
2018-05-04T21:22:57.727Z,31.37
2018-05-04T21:25:25.235Z,29.80
2018-05-04T21:27:53.531Z,30.83
2018-05-04T21:30:21.037Z,30.53
2018-05-04T21:32:48.704Z,30.37
2018-05-04T21:35:16.324Z,31.83
2018-05-04T21:37:43.828Z,31.07
2018-05-04T21:40:11.352Z,32.70
2018-05-04T21:42:38.842Z,31.30
2018-05-04T21:45:06.334Z,31.30
2018-05-04T21:47:33.882Z,29.73
2018-05-04T21:50:02.160Z,31.10
2018-05-04T21:52:29.648Z,33.07
2018-05-04T21:54:57.154Z,31.03
2018-05-04T21:57:25.442Z,30.30
2018-05-04T21:59:53.727Z,32.00
2018-05-04T22:02:21.247Z,32.97
2018-05-04T22:04:48.837Z,30.17
2018-05-04T22:07:16.275Z,32.97
2018-05-04T22:09:44.546Z,33.37
2018-05-04T22:12:12.865Z,31.00
2018-05-04T22:14:40.404Z,32.67
2018-05-04T22:17:07.890Z,34.93
2018-05-04T22:19:35.429Z,32.77
2018-05-04T22:22:02.933Z,34.97
2018-05-04T22:24:30.433Z,32.57
2018-05-04T22:26:57.964Z,32.63
2018-05-04T22:29:26.233Z,32.80
2018-05-04T22:31:53.750Z,32.70
2018-05-04T22:34:21.255Z,36.20
2018-05-04T22:36:49.518Z,33.77
2018-05-04T22:39:17.126Z,36.80
2018-05-04T22:41:44.667Z,34.17
2018-05-04T22:44:12.235Z,35.87
2018-05-04T22:46:39.795Z,34.10
2018-05-04T22:49:07.344Z,35.77
2018-05-04T22:51:34.834Z,34.93
2018-05-04T22:54:02.332Z,36.60
2018-05-04T22:56:30.627Z,34.97
2018-05-04T22:58:58.146Z,35.83
2018-05-04T23:01:25.661Z,35.87
2018-05-04T23:03:53.172Z,36.03
2018-05-04T23:06:20.733Z,34.27
2018-05-04T23:08:48.995Z,34.03
2018-05-04T23:11:16.517Z,35.80
2018-05-04T23:13:44.020Z,35.77
2018-05-04T23:16:12.275Z,37.27
2018-05-04T23:18:39.785Z,35.13
2018-05-04T23:21:07.289Z,34.20
2018-05-04T23:23:34.800Z,37.00
2018-05-04T23:26:02.316Z,34.63
2018-05-04T23:28:29.859Z,36.33
2018-05-04T23:30:57.349Z,35.70
2018-05-04T23:33:25.620Z,36.77
2018-05-04T23:35:53.882Z,35.10
2018-05-04T23:38:21.365Z,36.43
2018-05-04T23:40:48.885Z,36.10
2018-05-04T23:43:16.476Z,36.70
2018-05-04T23:45:44.038Z,36.07
2018-05-04T23:48:11.597Z,33.97
2018-05-04T23:50:39.137Z,33.70
2018-05-04T23:53:06.655Z,33.60
2018-05-04T23:55:34.149Z,34.00
2018-05-04T23:58:02.443Z,31.87
